sensor_id;sensor_type;location;lat;lon;timestamp;pressure;altitude;pressure_sealevel;temperature;humidity
49529;BME280;35423;37.320;-121.762;2023-03-01T00:02:13;99387.78;;;18.36;33.30
49529;BME280;35423;37.320;-121.762;2023-03-01T00:04:44;99380.88;;;18.00;33.38
49529;BME280;35423;37.320;-121.762;2023-03-01T00:07:10;99381.89;;;18.25;33.48
49529;BME280;35423;37.320;-121.762;2023-03-01T00:09:37;99378.23;;;18.19;33.54
49529;BME280;35423;37.320;-121.762;2023-03-01T00:12:02;99374.95;;;18.11;33.67
49529;BME280;35423;37.320;-121.762;2023-03-01T00:14:28;99371.43;;;18.10;33.90
49529;BME280;35423;37.320;-121.762;2023-03-01T00:16:56;99374.77;;;18.14;33.95
49529;BME280;35423;37.320;-121.762;2023-03-01T00:19:21;99367.89;;;18.10;33.81
49529;BME280;35423;37.320;-121.762;2023-03-01T00:21:47;99366.85;;;17.94;33.77
49529;BME280;35423;37.320;-121.762;2023-03-01T00:24:16;99364.20;;;18.02;34.14
49529;BME280;35423;37.320;-121.762;2023-03-01T00:26:43;99363.37;;;17.70;34.31
49529;BME280;35423;37.320;-121.762;2023-03-01T00:29:15;99361.53;;;17.80;34.31
49529;BME280;35423;37.320;-121.762;2023-03-01T00:31:40;99361.61;;;17.91;34.47
49529;BME280;35423;37.320;-121.762;2023-03-01T00:34:08;99363.12;;;17.61;34.66
49529;BME280;35423;37.320;-121.762;2023-03-01T00:36:42;99354.49;;;17.71;34.70
49529;BME280;35423;37.320;-121.762;2023-03-01T00:39:13;99352.75;;;17.23;34.79
49529;BME280;35423;37.320;-121.762;2023-03-01T00:41:36;99345.76;;;17.39;34.86
49529;BME280;35423;37.320;-121.762;2023-03-01T00:44:04;99333.93;;;17.54;34.75
49529;BME280;35423;37.320;-121.762;2023-03-01T00:46:31;99333.52;;;17.11;34.56
49529;BME280;35423;37.320;-121.762;2023-03-01T00:48:56;99337.01;;;17.08;34.76
49529;BME280;35423;37.320;-121.762;2023-03-01T00:51:23;99340.96;;;17.01;35.02
49529;BME280;35423;37.320;-121.762;2023-03-01T00:53:49;99335.68;;;17.00;35.20
49529;BME280;35423;37.320;-121.762;2023-03-01T00:56:13;99334.50;;;17.34;35.28
49529;BME280;35423;37.320;-121.762;2023-03-01T00:58:38;99330.21;;;17.41;35.28
49529;BME280;35423;37.320;-121.762;2023-03-01T01:01:10;99329.92;;;17.14;35.00
49529;BME280;35423;37.320;-121.762;2023-03-01T01:03:30;99326.73;;;17.20;35.12
49529;BME280;35423;37.320;-121.762;2023-03-01T01:05:55;99328.11;;;17.25;35.02
49529;BME280;35423;37.320;-121.762;2023-03-01T01:08:32;99318.07;;;17.53;35.02
49529;BME280;35423;37.320;-121.762;2023-03-01T01:11:03;99318.45;;;17.36;34.97
49529;BME280;35423;37.320;-121.762;2023-03-01T01:13:28;99312.33;;;17.42;34.87
49529;BME280;35423;37.320;-121.762;2023-03-01T01:15:55;99309.58;;;17.08;34.94
49529;BME280;35423;37.320;-121.762;2023-03-01T01:18:22;99307.97;;;17.34;34.79
49529;BME280;35423;37.320;-121.762;2023-03-01T01:20:51;99304.57;;;17.35;34.64
49529;BME280;35423;37.320;-121.762;2023-03-01T01:23:22;99303.18;;;17.47;34.32
49529;BME280;35423;37.320;-121.762;2023-03-01T01:25:49;99306.90;;;17.37;34.36
49529;BME280;35423;37.320;-121.762;2023-03-01T01:28:13;99306.12;;;17.32;34.41
49529;BME280;35423;37.320;-121.762;2023-03-01T01:30:43;99303.66;;;17.30;34.37
49529;BME280;35423;37.320;-121.762;2023-03-01T01:33:09;99302.41;;;17.00;34.19
49529;BME280;35423;37.320;-121.762;2023-03-01T01:35:37;99302.18;;;17.13;34.06
49529;BME280;35423;37.320;-121.762;2023-03-01T01:38:04;99297.00;;;17.03;34.04
49529;BME280;35423;37.320;-121.762;2023-03-01T01:40:32;99296.48;;;17.24;33.98
49529;BME280;35423;37.320;-121.762;2023-03-01T01:43:01;99299.65;;;16.89;34.05
49529;BME280;35423;37.320;-121.762;2023-03-01T01:45:32;99300.07;;;17.11;34.08
49529;BME280;35423;37.320;-121.762;2023-03-01T01:47:54;99299.27;;;17.02;34.18
49529;BME280;35423;37.320;-121.762;2023-03-01T01:50:26;99297.56;;;16.75;34.22
49529;BME280;35423;37.320;-121.762;2023-03-01T01:52:54;99292.72;;;16.95;34.13
49529;BME280;35423;37.320;-121.762;2023-03-01T01:55:27;99297.66;;;16.62;34.11
49529;BME280;35423;37.320;-121.762;2023-03-01T01:57:54;99297.54;;;16.57;34.22
49529;BME280;35423;37.320;-121.762;2023-03-01T02:00:28;99298.70;;;16.56;34.23
49529;BME280;35423;37.320;-121.762;2023-03-01T02:02:56;99295.27;;;16.80;34.36
49529;BME280;35423;37.320;-121.762;2023-03-01T02:05:33;99290.84;;;16.81;34.46
49529;BME280;35423;37.320;-121.762;2023-03-01T02:07:47;99286.39;;;16.58;34.43
49529;BME280;35423;37.320;-121.762;2023-03-01T02:10:13;99280.57;;;16.82;34.50
49529;BME280;35423;37.320;-121.762;2023-03-01T02:12:43;99273.42;;;16.53;34.61
49529;BME280;35423;37.320;-121.762;2023-03-01T02:15:08;99273.54;;;16.51;34.79
49529;BME280;35423;37.320;-121.762;2023-03-01T02:17:35;99273.37;;;16.52;34.75
49529;BME280;35423;37.320;-121.762;2023-03-01T02:20:14;99268.05;;;16.79;34.76
49529;BME280;35423;37.320;-121.762;2023-03-01T02:22:37;99265.71;;;16.77;34.70
49529;BME280;35423;37.320;-121.762;2023-03-01T02:25:09;99265.73;;;16.76;34.74
49529;BME280;35423;37.320;-121.762;2023-03-01T02:27:33;99266.44;;;16.75;34.80
49529;BME280;35423;37.320;-121.762;2023-03-01T02:29:55;99262.40;;;16.51;34.90
49529;BME280;35423;37.320;-121.762;2023-03-01T02:32:21;99256.02;;;16.51;35.01
49529;BME280;35423;37.320;-121.762;2023-03-01T02:34:48;99248.94;;;16.73;35.12
49529;BME280;35423;37.320;-121.762;2023-03-01T02:37:16;99251.66;;;16.45;35.14
49529;BME280;35423;37.320;-121.762;2023-03-01T02:39:46;99249.71;;;16.22;35.23
49529;BME280;35423;37.320;-121.762;2023-03-01T02:42:07;99242.91;;;16.42;35.31
49529;BME280;35423;37.320;-121.762;2023-03-01T02:44:41;99237.04;;;16.71;35.41
49529;BME280;35423;37.320;-121.762;2023-03-01T02:47:10;99236.38;;;16.67;35.46
49529;BME280;35423;37.320;-121.762;2023-03-01T02:49:37;99241.92;;;16.37;35.39
49529;BME280;35423;37.320;-121.762;2023-03-01T02:52:16;99247.50;;;16.63;35.30
49529;BME280;35423;37.320;-121.762;2023-03-01T02:54:30;99253.52;;;16.34;35.25
49529;BME280;35423;37.320;-121.762;2023-03-01T02:56:55;99257.92;;;16.80;35.25
49529;BME280;35423;37.320;-121.762;2023-03-01T02:59:27;99255.90;;;16.55;35.19
49529;BME280;35423;37.320;-121.762;2023-03-01T03:01:49;99254.72;;;16.70;35.29
49529;BME280;35423;37.320;-121.762;2023-03-01T03:04:18;99249.18;;;16.39;35.24
49529;BME280;35423;37.320;-121.762;2023-03-01T03:06:42;99243.62;;;16.28;35.40
49529;BME280;35423;37.320;-121.762;2023-03-01T03:09:16;99246.89;;;16.39;35.47
49529;BME280;35423;37.320;-121.762;2023-03-01T03:11:36;99251.95;;;16.06;35.64
49529;BME280;35423;37.320;-121.762;2023-03-01T03:14:06;99248.27;;;16.20;35.78
49529;BME280;35423;37.320;-121.762;2023-03-01T03:16:31;99246.38;;;15.88;35.93
49529;BME280;35423;37.320;-121.762;2023-03-01T03:18:57;99243.89;;;15.78;35.85
49529;BME280;35423;37.320;-121.762;2023-03-01T03:21:26;99238.19;;;15.91;35.87
49529;BME280;35423;37.320;-121.762;2023-03-01T03:23:57;99236.53;;;15.86;35.93
49529;BME280;35423;37.320;-121.762;2023-03-01T03:26:27;99240.78;;;15.81;35.95
49529;BME280;35423;37.320;-121.762;2023-03-01T03:28:55;99241.81;;;15.72;36.14
49529;BME280;35423;37.320;-121.762;2023-03-01T03:31:28;99243.34;;;15.68;36.23
49529;BME280;35423;37.320;-121.762;2023-03-01T03:33:54;99243.29;;;15.64;36.34
49529;BME280;35423;37.320;-121.762;2023-03-01T03:36:24;99240.24;;;15.64;36.37
49529;BME280;35423;37.320;-121.762;2023-03-01T03:38:58;99236.94;;;15.67;36.34
49529;BME280;35423;37.320;-121.762;2023-03-01T03:41:28;99239.87;;;15.63;36.41
49529;BME280;35423;37.320;-121.762;2023-03-01T03:43:59;99237.74;;;15.40;36.55
49529;BME280;35423;37.320;-121.762;2023-03-01T03:46:27;99233.68;;;15.65;36.57
49529;BME280;35423;37.320;-121.762;2023-03-01T03:48:55;99231.71;;;15.63;36.62
49529;BME280;35423;37.320;-121.762;2023-03-01T03:51:20;99227.74;;;15.38;36.71
49529;BME280;35423;37.320;-121.762;2023-03-01T03:53:57;99218.52;;;15.82;36.71
49529;BME280;35423;37.320;-121.762;2023-03-01T03:56:22;99211.08;;;15.56;36.76
49529;BME280;35423;37.320;-121.762;2023-03-01T03:58:47;99217.93;;;15.57;36.76
49529;BME280;35423;37.320;-121.762;2023-03-01T04:01:17;99214.59;;;15.58;36.60
49529;BME280;35423;37.320;-121.762;2023-03-01T04:03:42;99209.39;;;15.54;36.47
49529;BME280;35423;37.320;-121.762;2023-03-01T04:06:09;99206.93;;;15.53;36.46
49529;BME280;35423;37.320;-121.762;2023-03-01T04:08:36;99204.76;;;15.52;36.48
49529;BME280;35423;37.320;-121.762;2023-03-01T04:11:03;99205.36;;;15.77;36.38
49529;BME280;35423;37.320;-121.762;2023-03-01T04:13:29;99200.37;;;15.48;36.40
49529;BME280;35423;37.320;-121.762;2023-03-01T04:16:06;99202.48;;;15.50;36.40
49529;BME280;35423;37.320;-121.762;2023-03-01T04:18:33;99199.21;;;15.29;36.14
49529;BME280;35423;37.320;-121.762;2023-03-01T04:20:59;99198.45;;;15.49;36.04
49529;BME280;35423;37.320;-121.762;2023-03-01T04:23:23;99195.50;;;15.44;36.11
49529;BME280;35423;37.320;-121.762;2023-03-01T04:25:53;99195.46;;;15.47;36.23
49529;BME280;35423;37.320;-121.762;2023-03-01T04:28:22;99193.96;;;15.47;36.30
49529;BME280;35423;37.320;-121.762;2023-03-01T04:30:47;99192.63;;;15.72;36.29
49529;BME280;35423;37.320;-121.762;2023-03-01T04:33:12;99189.50;;;15.26;36.19
49529;BME280;35423;37.320;-121.762;2023-03-01T04:35:53;99181.38;;;15.92;36.11
49529;BME280;35423;37.320;-121.762;2023-03-01T04:38:21;99176.81;;;15.40;36.13
49529;BME280;35423;37.320;-121.762;2023-03-01T04:40:50;99173.76;;;15.37;36.12
49529;BME280;35423;37.320;-121.762;2023-03-01T04:43:22;99172.77;;;15.61;36.22
49529;BME280;35423;37.320;-121.762;2023-03-01T04:45:48;99170.37;;;15.37;36.25
49529;BME280;35423;37.320;-121.762;2023-03-01T04:48:15;99170.92;;;15.38;36.19
49529;BME280;35423;37.320;-121.762;2023-03-01T04:50:45;99183.94;;;15.39;36.15
49529;BME280;35423;37.320;-121.762;2023-03-01T04:53:18;99205.54;;;15.37;35.85
49529;BME280;35423;37.320;-121.762;2023-03-01T04:55:47;99206.03;;;15.17;35.47
49529;BME280;35423;37.320;-121.762;2023-03-01T04:58:13;99207.54;;;15.24;35.20
49529;BME280;35423;37.320;-121.762;2023-03-01T05:00:44;99204.08;;;14.78;35.28
49529;BME280;35423;37.320;-121.762;2023-03-01T05:03:15;99204.91;;;14.66;35.29
49529;BME280;35423;37.320;-121.762;2023-03-01T05:05:40;99207.39;;;15.04;35.19
49529;BME280;35423;37.320;-121.762;2023-03-01T05:08:07;99206.44;;;14.44;35.24
49529;BME280;35423;37.320;-121.762;2023-03-01T05:10:44;99207.88;;;14.85;35.15
49529;BME280;35423;37.320;-121.762;2023-03-01T05:13:10;99205.86;;;14.76;35.12
49529;BME280;35423;37.320;-121.762;2023-03-01T05:15:36;99204.47;;;14.67;35.06
49529;BME280;35423;37.320;-121.762;2023-03-01T05:18:03;99206.75;;;14.33;34.94
49529;BME280;35423;37.320;-121.762;2023-03-01T05:20:28;99203.05;;;14.43;35.19
49529;BME280;35423;37.320;-121.762;2023-03-01T05:22:57;99198.46;;;14.37;35.32
49529;BME280;35423;37.320;-121.762;2023-03-01T05:25:21;99194.77;;;14.32;35.53
49529;BME280;35423;37.320;-121.762;2023-03-01T05:27:49;99187.96;;;14.32;35.54
49529;BME280;35423;37.320;-121.762;2023-03-01T05:30:22;99183.49;;;14.27;35.66
49529;BME280;35423;37.320;-121.762;2023-03-01T05:32:56;99190.03;;;14.23;35.72
49529;BME280;35423;37.320;-121.762;2023-03-01T05:35:24;99190.85;;;14.22;35.81
49529;BME280;35423;37.320;-121.762;2023-03-01T05:37:53;99191.33;;;14.24;35.83
49529;BME280;35423;37.320;-121.762;2023-03-01T05:40:24;99200.71;;;14.19;35.89
49529;BME280;35423;37.320;-121.762;2023-03-01T05:42:54;99204.38;;;14.20;35.82
49529;BME280;35423;37.320;-121.762;2023-03-01T05:45:20;99203.76;;;14.16;35.83
49529;BME280;35423;37.320;-121.762;2023-03-01T05:47:46;99200.19;;;14.12;35.83
49529;BME280;35423;37.320;-121.762;2023-03-01T05:50:14;99199.48;;;14.12;35.76
49529;BME280;35423;37.320;-121.762;2023-03-01T05:52:39;99204.12;;;14.07;35.76
49529;BME280;35423;37.320;-121.762;2023-03-01T05:55:09;99209.44;;;13.80;35.86
49529;BME280;35423;37.320;-121.762;2023-03-01T05:57:43;99226.48;;;13.96;35.89
49529;BME280;35423;37.320;-121.762;2023-03-01T06:00:19;99224.53;;;14.13;35.71
49529;BME280;35423;37.320;-121.762;2023-03-01T06:02:44;99231.86;;;13.75;35.72
49529;BME280;35423;37.320;-121.762;2023-03-01T06:05:10;99227.94;;;13.90;35.57
49529;BME280;35423;37.320;-121.762;2023-03-01T06:07:46;99235.21;;;14.04;35.50
49529;BME280;35423;37.320;-121.762;2023-03-01T06:10:13;99233.21;;;13.92;35.60
49529;BME280;35423;37.320;-121.762;2023-03-01T06:12:46;99237.67;;;13.53;35.49
49529;BME280;35423;37.320;-121.762;2023-03-01T06:15:14;99237.73;;;13.70;35.32
49529;BME280;35423;37.320;-121.762;2023-03-01T06:17:45;99240.40;;;13.38;35.12
49529;BME280;35423;37.320;-121.762;2023-03-01T06:20:13;99246.95;;;13.66;34.77
49529;BME280;35423;37.320;-121.762;2023-03-01T06:22:47;99247.40;;;13.56;34.56
49529;BME280;35423;37.320;-121.762;2023-03-01T06:25:13;99244.54;;;13.53;34.44
49529;BME280;35423;37.320;-121.762;2023-03-01T06:27:41;99238.31;;;13.52;34.37
49529;BME280;35423;37.320;-121.762;2023-03-01T06:30:13;99244.20;;;13.50;34.46
49529;BME280;35423;37.320;-121.762;2023-03-01T06:32:42;99247.80;;;13.23;34.53
49529;BME280;35423;37.320;-121.762;2023-03-01T06:35:15;99245.92;;;13.50;34.58
49529;BME280;35423;37.320;-121.762;2023-03-01T06:37:42;99236.59;;;13.25;34.57
49529;BME280;35423;37.320;-121.762;2023-03-01T06:40:12;99237.68;;;13.04;34.60
49529;BME280;35423;37.320;-121.762;2023-03-01T06:42:38;99231.77;;;13.59;34.64
49529;BME280;35423;37.320;-121.762;2023-03-01T06:45:04;99228.52;;;13.58;34.72
49529;BME280;35423;37.320;-121.762;2023-03-01T06:47:29;99217.15;;;13.60;34.82
49529;BME280;35423;37.320;-121.762;2023-03-01T06:50:02;99209.94;;;13.62;34.82
49529;BME280;35423;37.320;-121.762;2023-03-01T06:52:31;99197.13;;;13.16;34.72
49529;BME280;35423;37.320;-121.762;2023-03-01T06:54:57;99180.39;;;13.36;34.65
49529;BME280;35423;37.320;-121.762;2023-03-01T06:57:31;99174.02;;;13.61;34.82
49529;BME280;35423;37.320;-121.762;2023-03-01T06:59:57;99167.53;;;13.29;34.89
49529;BME280;35423;37.320;-121.762;2023-03-01T07:02:25;99157.82;;;13.24;35.03
49529;BME280;35423;37.320;-121.762;2023-03-01T07:04:52;99153.85;;;13.44;35.21
49529;BME280;35423;37.320;-121.762;2023-03-01T07:07:17;99153.35;;;13.37;35.32
49529;BME280;35423;37.320;-121.762;2023-03-01T07:09:44;99153.93;;;13.29;35.25
49529;BME280;35423;37.320;-121.762;2023-03-01T07:12:17;99154.42;;;13.21;35.25
49529;BME280;35423;37.320;-121.762;2023-03-01T07:14:44;99156.42;;;13.14;35.33
49529;BME280;35423;37.320;-121.762;2023-03-01T07:17:08;99160.09;;;13.15;35.52
49529;BME280;35423;37.320;-121.762;2023-03-01T07:19:34;99158.72;;;13.19;35.54
49529;BME280;35423;37.320;-121.762;2023-03-01T07:22:02;99155.35;;;13.22;35.60
49529;BME280;35423;37.320;-121.762;2023-03-01T07:24:26;99150.74;;;13.26;35.67
49529;BME280;35423;37.320;-121.762;2023-03-01T07:26:57;99150.28;;;13.29;35.73
49529;BME280;35423;37.320;-121.762;2023-03-01T07:29:17;99144.87;;;13.04;35.63
49529;BME280;35423;37.320;-121.762;2023-03-01T07:31:45;99143.92;;;13.30;35.60
49529;BME280;35423;37.320;-121.762;2023-03-01T07:34:11;99141.93;;;13.31;35.57
49529;BME280;35423;37.320;-121.762;2023-03-01T07:36:36;99131.97;;;13.29;35.49
49529;BME280;35423;37.320;-121.762;2023-03-01T07:39:02;99128.92;;;13.28;35.48
49529;BME280;35423;37.320;-121.762;2023-03-01T07:41:36;99130.05;;;13.01;35.60
49529;BME280;35423;37.320;-121.762;2023-03-01T07:44:05;99128.71;;;13.25;35.77
49529;BME280;35423;37.320;-121.762;2023-03-01T07:46:31;99123.93;;;12.98;35.87
49529;BME280;35423;37.320;-121.762;2023-03-01T07:49:01;99130.27;;;13.26;35.86
49529;BME280;35423;37.320;-121.762;2023-03-01T07:51:30;99124.43;;;13.24;35.81
49529;BME280;35423;37.320;-121.762;2023-03-01T07:53:55;99126.67;;;13.23;35.77
49529;BME280;35423;37.320;-121.762;2023-03-01T07:56:24;99128.80;;;13.25;35.83
49529;BME280;35423;37.320;-121.762;2023-03-01T07:58:49;99135.81;;;13.25;35.80
49529;BME280;35423;37.320;-121.762;2023-03-01T08:01:23;99133.67;;;13.25;35.76
49529;BME280;35423;37.320;-121.762;2023-03-01T08:03:53;99135.05;;;13.20;35.68
49529;BME280;35423;37.320;-121.762;2023-03-01T08:06:20;99136.17;;;13.11;35.72
49529;BME280;35423;37.320;-121.762;2023-03-01T08:08:47;99138.47;;;13.29;35.76
49529;BME280;35423;37.320;-121.762;2023-03-01T08:11:19;99141.71;;;13.05;35.82
49529;BME280;35423;37.320;-121.762;2023-03-01T08:13:48;99149.48;;;13.04;35.83
49529;BME280;35423;37.320;-121.762;2023-03-01T08:16:19;99149.82;;;13.05;35.88
49529;BME280;35423;37.320;-121.762;2023-03-01T08:18:44;99149.42;;;13.06;35.82
49529;BME280;35423;37.320;-121.762;2023-03-01T08:21:18;99164.28;;;13.03;35.77
49529;BME280;35423;37.320;-121.762;2023-03-01T08:23:45;99173.98;;;13.01;35.73
49529;BME280;35423;37.320;-121.762;2023-03-01T08:26:15;99181.05;;;12.94;35.43
49529;BME280;35423;37.320;-121.762;2023-03-01T08:28:39;99178.13;;;12.82;35.30
49529;BME280;35423;37.320;-121.762;2023-03-01T08:31:14;99178.65;;;12.71;35.08
49529;BME280;35423;37.320;-121.762;2023-03-01T08:33:34;99171.62;;;12.86;34.85
49529;BME280;35423;37.320;-121.762;2023-03-01T08:36:05;99168.94;;;12.78;34.65
49529;BME280;35423;37.320;-121.762;2023-03-01T08:38:32;99175.62;;;12.22;34.62
49529;BME280;35423;37.320;-121.762;2023-03-01T08:40:53;99178.93;;;12.52;34.52
49529;BME280;35423;37.320;-121.762;2023-03-01T08:43:21;99178.88;;;12.50;34.63
49529;BME280;35423;37.320;-121.762;2023-03-01T08:45:50;99180.77;;;12.50;34.60
49529;BME280;35423;37.320;-121.762;2023-03-01T08:48:20;99182.40;;;12.51;34.42
49529;BME280;35423;37.320;-121.762;2023-03-01T08:50:46;99187.58;;;12.70;34.47
49529;BME280;35423;37.320;-121.762;2023-03-01T08:53:11;99187.63;;;12.72;34.59
49529;BME280;35423;37.320;-121.762;2023-03-01T08:55:39;99174.08;;;12.70;34.49
49529;BME280;35423;37.320;-121.762;2023-03-01T08:58:06;99180.23;;;12.62;34.48
49529;BME280;35423;37.320;-121.762;2023-03-01T09:00:33;99187.06;;;12.37;34.65
49529;BME280;35423;37.320;-121.762;2023-03-01T09:03:05;99187.10;;;12.59;34.79
49529;BME280;35423;37.320;-121.762;2023-03-01T09:05:33;99181.45;;;12.58;34.83
49529;BME280;35423;37.320;-121.762;2023-03-01T09:07:59;99187.21;;;12.59;34.82
49529;BME280;35423;37.320;-121.762;2023-03-01T09:10:24;99186.75;;;12.34;34.77
49529;BME280;35423;37.320;-121.762;2023-03-01T09:12:50;99189.30;;;12.78;34.78
49529;BME280;35423;37.320;-121.762;2023-03-01T09:15:16;99187.51;;;12.24;34.82
49529;BME280;35423;37.320;-121.762;2023-03-01T09:17:42;99186.74;;;12.41;34.79
49529;BME280;35423;37.320;-121.762;2023-03-01T09:20:09;99190.48;;;12.36;34.81
49529;BME280;35423;37.320;-121.762;2023-03-01T09:22:34;99190.13;;;12.27;34.67
49529;BME280;35423;37.320;-121.762;2023-03-01T09:25:08;99193.75;;;12.17;34.59
49529;BME280;35423;37.320;-121.762;2023-03-01T09:27:41;99189.90;;;11.84;34.66
49529;BME280;35423;37.320;-121.762;2023-03-01T09:30:07;99190.70;;;12.25;34.72
49529;BME280;35423;37.320;-121.762;2023-03-01T09:32:36;99191.80;;;11.91;34.77
49529;BME280;35423;37.320;-121.762;2023-03-01T09:35:01;99193.80;;;12.09;34.77
49529;BME280;35423;37.320;-121.762;2023-03-01T09:37:27;99200.57;;;11.74;34.77
49529;BME280;35423;37.320;-121.762;2023-03-01T09:39:55;99201.58;;;11.92;34.94
49529;BME280;35423;37.320;-121.762;2023-03-01T09:42:22;99196.94;;;11.90;34.89
49529;BME280;35423;37.320;-121.762;2023-03-01T09:44:53;99195.64;;;11.86;34.94
49529;BME280;35423;37.320;-121.762;2023-03-01T09:47:19;99197.29;;;11.87;34.97
49529;BME280;35423;37.320;-121.762;2023-03-01T09:50:03;99202.43;;;11.90;35.00
49529;BME280;35423;37.320;-121.762;2023-03-01T09:52:30;99202.86;;;11.89;35.02
49529;BME280;35423;37.320;-121.762;2023-03-01T09:54:48;99203.46;;;11.89;34.85
49529;BME280;35423;37.320;-121.762;2023-03-01T09:57:19;99201.60;;;11.84;34.87
49529;BME280;35423;37.320;-121.762;2023-03-01T10:02:23;99195.58;;;11.72;35.00
49529;BME280;35423;37.320;-121.762;2023-03-01T10:04:45;99191.86;;;11.90;35.01
49529;BME280;35423;37.320;-121.762;2023-03-01T10:07:20;99189.19;;;11.66;34.97
49529;BME280;35423;37.320;-121.762;2023-03-01T10:09:36;99187.58;;;11.56;34.97
49529;BME280;35423;37.320;-121.762;2023-03-01T10:12:02;99187.99;;;11.67;35.05
49529;BME280;35423;37.320;-121.762;2023-03-01T10:14:37;99185.34;;;11.40;35.13
49529;BME280;35423;37.320;-121.762;2023-03-01T10:17:04;99179.29;;;11.62;35.09
49529;BME280;35423;37.320;-121.762;2023-03-01T10:19:33;99177.46;;;11.60;35.20
49529;BME280;35423;37.320;-121.762;2023-03-01T10:22:02;99172.75;;;11.35;35.20
49529;BME280;35423;37.320;-121.762;2023-03-01T10:24:23;99176.32;;;11.55;35.29
49529;BME280;35423;37.320;-121.762;2023-03-01T10:26:55;99173.87;;;11.56;35.32
49529;BME280;35423;37.320;-121.762;2023-03-01T10:29:24;99175.22;;;11.30;35.45
49529;BME280;35423;37.320;-121.762;2023-03-01T10:31:55;99171.80;;;11.54;35.49
49529;BME280;35423;37.320;-121.762;2023-03-01T10:34:30;99165.94;;;11.56;35.57
49529;BME280;35423;37.320;-121.762;2023-03-01T10:36:57;99161.36;;;11.39;35.60
49529;BME280;35423;37.320;-121.762;2023-03-01T10:39:22;99160.97;;;11.69;35.54
49529;BME280;35423;37.320;-121.762;2023-03-01T10:41:55;99158.47;;;11.53;35.45
49529;BME280;35423;37.320;-121.762;2023-03-01T10:46:41;99157.92;;;11.59;35.27
49529;BME280;35423;37.320;-121.762;2023-03-01T10:49:16;99156.21;;;11.59;35.28
49529;BME280;35423;37.320;-121.762;2023-03-01T10:51:35;99154.56;;;11.63;35.27
49529;BME280;35423;37.320;-121.762;2023-03-01T10:54:01;99151.27;;;11.63;35.26
49529;BME280;35423;37.320;-121.762;2023-03-01T10:56:26;99150.06;;;11.88;35.22
49529;BME280;35423;37.320;-121.762;2023-03-01T10:58:59;99146.37;;;11.68;35.11
49529;BME280;35423;37.320;-121.762;2023-03-01T11:01:27;99144.50;;;11.90;35.21
49529;BME280;35423;37.320;-121.762;2023-03-01T11:06:25;99141.94;;;11.64;35.16
49529;BME280;35423;37.320;-121.762;2023-03-01T11:08:54;99141.84;;;11.83;35.11
49529;BME280;35423;37.320;-121.762;2023-03-01T11:11:23;99140.53;;;11.59;35.12
49529;BME280;35423;37.320;-121.762;2023-03-01T11:13:53;99138.48;;;11.59;35.11
49529;BME280;35423;37.320;-121.762;2023-03-01T11:16:27;99141.68;;;11.84;35.01
49529;BME280;35423;37.320;-121.762;2023-03-01T11:18:41;99140.17;;;11.63;35.01
49529;BME280;35423;37.320;-121.762;2023-03-01T11:21:10;99138.59;;;11.63;35.07
49529;BME280;35423;37.320;-121.762;2023-03-01T11:23:37;99128.41;;;11.84;35.17
49529;BME280;35423;37.320;-121.762;2023-03-01T11:26:12;99131.35;;;11.59;35.26
49529;BME280;35423;37.320;-121.762;2023-03-01T11:28:40;99130.45;;;11.59;35.31
49529;BME280;35423;37.320;-121.762;2023-03-01T11:31:07;99130.16;;;11.58;35.35
49529;BME280;35423;37.320;-121.762;2023-03-01T11:33:37;99134.33;;;11.82;35.33
49529;BME280;35423;37.320;-121.762;2023-03-01T11:36:00;99136.45;;;11.81;35.33
49529;BME280;35423;37.320;-121.762;2023-03-01T11:38:26;99128.86;;;11.78;35.34
49529;BME280;35423;37.320;-121.762;2023-03-01T11:41:01;99131.55;;;11.73;35.41
49529;BME280;35423;37.320;-121.762;2023-03-01T11:43:29;99127.83;;;11.48;35.43
49529;BME280;35423;37.320;-121.762;2023-03-01T11:48:37;99129.68;;;11.68;35.55
49529;BME280;35423;37.320;-121.762;2023-03-01T11:50:56;99125.17;;;11.47;35.50
49529;BME280;35423;37.320;-121.762;2023-03-01T11:56:07;99131.08;;;11.69;35.42
49529;BME280;35423;37.320;-121.762;2023-03-01T12:01:01;99130.39;;;11.91;35.37
49529;BME280;35423;37.320;-121.762;2023-03-01T12:03:28;99135.06;;;11.69;35.33
49529;BME280;35423;37.320;-121.762;2023-03-01T12:08:23;99145.01;;;11.91;35.40
49529;BME280;35423;37.320;-121.762;2023-03-01T12:10:54;99145.35;;;11.88;35.28
49529;BME280;35423;37.320;-121.762;2023-03-01T12:13:25;99152.49;;;11.42;35.30
49529;BME280;35423;37.320;-121.762;2023-03-01T12:15:47;99155.91;;;11.62;35.36
49529;BME280;35423;37.320;-121.762;2023-03-01T12:20:40;99161.10;;;11.44;35.44
49529;BME280;35423;37.320;-121.762;2023-03-01T12:23:20;99165.06;;;11.42;35.42
49529;BME280;35423;37.320;-121.762;2023-03-01T12:25:35;99166.65;;;11.60;35.36
49529;BME280;35423;37.320;-121.762;2023-03-01T12:28:06;99171.23;;;11.78;35.31
49529;BME280;35423;37.320;-121.762;2023-03-01T12:30:30;99176.24;;;11.30;35.32
49529;BME280;35423;37.320;-121.762;2023-03-01T12:32:59;99181.27;;;11.25;35.40
49529;BME280;35423;37.320;-121.762;2023-03-01T12:35:23;99189.71;;;11.69;35.43
49529;BME280;35423;37.320;-121.762;2023-03-01T12:37:48;99189.66;;;11.41;35.42
49529;BME280;35423;37.320;-121.762;2023-03-01T12:40:16;99193.19;;;11.20;35.44
49529;BME280;35423;37.320;-121.762;2023-03-01T12:42:36;99193.60;;;11.21;35.49
49529;BME280;35423;37.320;-121.762;2023-03-01T12:45:09;99199.62;;;11.44;35.56
49529;BME280;35423;37.320;-121.762;2023-03-01T12:47:36;99203.01;;;11.44;35.55
49529;BME280;35423;37.320;-121.762;2023-03-01T12:49:54;99207.68;;;11.44;35.59
49529;BME280;35423;37.320;-121.762;2023-03-01T12:52:35;99210.11;;;11.64;35.65
49529;BME280;35423;37.320;-121.762;2023-03-01T12:54:54;99217.28;;;11.19;35.70